sensor_id;sensor_type;location;lat;lon;timestamp;pressure;altitude;pressure_sealevel;temperature;humidity
37852;BME280;23691;52.486;4.650;2023-01-30T00:01:30;101660.75;;;8.08;89.14
37852;BME280;23691;52.486;4.650;2023-01-30T00:03:55;101657.09;;;8.09;89.10
37852;BME280;23691;52.486;4.650;2023-01-30T00:06:21;101652.38;;;8.12;88.99
37852;BME280;23691;52.486;4.650;2023-01-30T00:08:46;101646.91;;;8.14;88.78
37852;BME280;23691;52.486;4.650;2023-01-30T00:11:14;101628.84;;;8.17;88.88
37852;BME280;23691;52.486;4.650;2023-01-30T00:13:40;101641.06;;;8.20;88.75
37852;BME280;23691;52.486;4.650;2023-01-30T00:16:07;101635.84;;;8.18;88.64
37852;BME280;23691;52.486;4.650;2023-01-30T00:18:34;101623.38;;;8.19;88.75
37852;BME280;23691;52.486;4.650;2023-01-30T00:21:01;101630.41;;;8.20;88.56
37852;BME280;23691;52.486;4.650;2023-01-30T00:23:28;101617.06;;;8.20;88.38
37852;BME280;23691;52.486;4.650;2023-01-30T00:25:54;101635.00;;;8.18;88.16
37852;BME280;23691;52.486;4.650;2023-01-30T00:28:20;101640.34;;;8.18;88.07
37852;BME280;23691;52.486;4.650;2023-01-30T00:30:49;101621.69;;;8.18;87.70
37852;BME280;23691;52.486;4.650;2023-01-30T00:33:15;101619.13;;;8.16;87.54
37852;BME280;23691;52.486;4.650;2023-01-30T00:35:45;101610.31;;;8.16;87.40
37852;BME280;23691;52.486;4.650;2023-01-30T00:38:11;101580.16;;;8.15;87.43
37852;BME280;23691;52.486;4.650;2023-01-30T00:40:37;101578.19;;;8.17;87.53
37852;BME280;23691;52.486;4.650;2023-01-30T00:43:02;101579.88;;;8.18;87.00
37852;BME280;23691;52.486;4.650;2023-01-30T00:46:11;101588.72;;;8.19;87.46
37852;BME280;23691;52.486;4.650;2023-01-30T00:48:56;101563.03;;;8.18;87.51
37852;BME280;23691;52.486;4.650;2023-01-30T00:51:21;101580.16;;;8.15;87.42
37852;BME280;23691;52.486;4.650;2023-01-30T00:53:47;101585.47;;;8.15;87.80
37852;BME280;23691;52.486;4.650;2023-01-30T00:56:12;101575.66;;;8.16;87.64
37852;BME280;23691;52.486;4.650;2023-01-30T00:58:37;101577.34;;;8.17;87.68
37852;BME280;23691;52.486;4.650;2023-01-30T01:01:03;101574.66;;;8.17;87.61
37852;BME280;23691;52.486;4.650;2023-01-30T01:03:28;101573.09;;;8.14;87.54
37852;BME280;23691;52.486;4.650;2023-01-30T01:05:54;101575.78;;;8.14;87.43
37852;BME280;23691;52.486;4.650;2023-01-30T01:08:19;101586.44;;;8.14;87.59
37852;BME280;23691;52.486;4.650;2023-01-30T01:10:46;101564.28;;;8.14;87.49
37852;BME280;23691;52.486;4.650;2023-01-30T01:13:12;101556.44;;;8.12;87.54
37852;BME280;23691;52.486;4.650;2023-01-30T01:15:37;101550.38;;;8.10;87.51
37852;BME280;23691;52.486;4.650;2023-01-30T01:18:02;101553.03;;;8.10;87.78
37852;BME280;23691;52.486;4.650;2023-01-30T01:20:28;101548.09;;;8.06;88.03
37852;BME280;23691;52.486;4.650;2023-01-30T01:22:54;101556.22;;;8.04;88.20
37852;BME280;23691;52.486;4.650;2023-01-30T01:25:21;101557.19;;;8.03;88.14
37852;BME280;23691;52.486;4.650;2023-01-30T01:27:46;101575.84;;;8.03;88.37
37852;BME280;23691;52.486;4.650;2023-01-30T01:30:12;101567.88;;;8.03;88.48
37852;BME280;23691;52.486;4.650;2023-01-30T01:32:38;101565.31;;;8.02;88.53
37852;BME280;23691;52.486;4.650;2023-01-30T01:35:04;101559.25;;;8.00;88.71
37852;BME280;23691;52.486;4.650;2023-01-30T01:37:30;101564.75;;;7.98;88.88
37852;BME280;23691;52.486;4.650;2023-01-30T01:39:55;101558.69;;;7.96;89.01
37852;BME280;23691;52.486;4.650;2023-01-30T01:42:39;101546.34;;;7.95;89.02
37852;BME280;23691;52.486;4.650;2023-01-30T01:47:38;101549.88;;;7.95;89.28
37852;BME280;23691;52.486;4.650;2023-01-30T01:50:08;101534.97;;;7.93;89.05
37852;BME280;23691;52.486;4.650;2023-01-30T01:52:36;101539.31;;;7.94;89.60
37852;BME280;23691;52.486;4.650;2023-01-30T01:55:04;101536.66;;;7.94;89.42
37852;BME280;23691;52.486;4.650;2023-01-30T01:57:43;101546.22;;;7.96;89.58
37852;BME280;23691;52.486;4.650;2023-01-30T02:00:15;101536.28;;;7.99;89.34
37852;BME280;23691;52.486;4.650;2023-01-30T02:02:44;101543.28;;;8.00;89.49
37852;BME280;23691;52.486;4.650;2023-01-30T02:05:11;101537.81;;;8.01;89.54
37852;BME280;23691;52.486;4.650;2023-01-30T02:07:45;101528.16;;;8.00;89.53
37852;BME280;23691;52.486;4.650;2023-01-30T02:10:20;101535.28;;;8.00;89.49
37852;BME280;23691;52.486;4.650;2023-01-30T02:12:47;101535.16;;;8.01;89.55
37852;BME280;23691;52.486;4.650;2023-01-30T02:15:13;101528.00;;;8.02;89.58
37852;BME280;23691;52.486;4.650;2023-01-30T02:17:38;101534.78;;;8.06;89.29
37852;BME280;23691;52.486;4.650;2023-01-30T02:20:29;101519.63;;;8.06;89.33
37852;BME280;23691;52.486;4.650;2023-01-30T02:25:53;101528.47;;;8.07;89.12
37852;BME280;23691;52.486;4.650;2023-01-30T02:31:34;101525.94;;;8.05;89.16
37852;BME280;23691;52.486;4.650;2023-01-30T02:39:15;101539.00;;;8.08;88.93
37852;BME280;23691;52.486;4.650;2023-01-30T02:44:51;101534.38;;;8.10;89.03
37852;BME280;23691;52.486;4.650;2023-01-30T02:47:24;101531.84;;;8.09;88.94
37852;BME280;23691;52.486;4.650;2023-01-30T02:49:58;101540.66;;;8.09;88.94
37852;BME280;23691;52.486;4.650;2023-01-30T02:52:26;101527.34;;;8.09;88.93
37852;BME280;23691;52.486;4.650;2023-01-30T02:54:51;101545.16;;;8.09;88.94
37852;BME280;23691;52.486;4.650;2023-01-30T02:57:21;101540.66;;;8.09;89.40
37852;BME280;23691;52.486;4.650;2023-01-30T02:59:51;101521.06;;;8.10;89.12
37852;BME280;23691;52.486;4.650;2023-01-30T03:05:29;101521.91;;;8.11;88.99
37852;BME280;23691;52.486;4.650;2023-01-30T03:08:03;101517.28;;;8.13;88.93
37852;BME280;23691;52.486;4.650;2023-01-30T03:14:01;101517.84;;;8.16;88.93
37852;BME280;23691;52.486;4.650;2023-01-30T03:16:34;101510.84;;;8.15;88.75
37852;BME280;23691;52.486;4.650;2023-01-30T03:19:03;101517.84;;;8.16;88.86
37852;BME280;23691;52.486;4.650;2023-01-30T03:21:30;101534.69;;;8.17;88.79
37852;BME280;23691;52.486;4.650;2023-01-30T03:23:56;101525.59;;;8.20;88.92
37852;BME280;23691;52.486;4.650;2023-01-30T03:26:25;101529.09;;;8.20;88.75
37852;BME280;23691;52.486;4.650;2023-01-30T03:28:54;101521.81;;;8.22;88.75
37852;BME280;23691;52.486;4.650;2023-01-30T03:31:19;101533.34;;;8.23;88.78
37852;BME280;23691;52.486;4.650;2023-01-30T03:33:44;101528.84;;;8.23;88.70
37852;BME280;23691;52.486;4.650;2023-01-30T03:36:10;101521.69;;;8.24;88.75
37852;BME280;23691;52.486;4.650;2023-01-30T03:38:36;101515.50;;;8.23;88.43
37852;BME280;23691;52.486;4.650;2023-01-30T03:41:03;101515.22;;;8.26;88.59
37852;BME280;23691;52.486;4.650;2023-01-30T03:43:29;101523.22;;;8.26;88.29
37852;BME280;23691;52.486;4.650;2023-01-30T03:45:54;101516.34;;;8.24;88.14
37852;BME280;23691;52.486;4.650;2023-01-30T03:48:21;101518.06;;;8.25;88.12
37852;BME280;23691;52.486;4.650;2023-01-30T03:50:47;101520.56;;;8.26;87.93
37852;BME280;23691;52.486;4.650;2023-01-30T03:53:12;101512.72;;;8.25;87.75
37852;BME280;23691;52.486;4.650;2023-01-30T03:55:38;101507.38;;;8.25;87.58
37852;BME280;23691;52.486;4.650;2023-01-30T03:58:03;101497.56;;;8.25;87.21
37852;BME280;23691;52.486;4.650;2023-01-30T04:00:28;101512.56;;;8.26;87.21
37852;BME280;23691;52.486;4.650;2023-01-30T04:02:54;101512.56;;;8.26;86.53
37852;BME280;23691;52.486;4.650;2023-01-30T04:05:21;101511.72;;;8.26;86.16
37852;BME280;23691;52.486;4.650;2023-01-30T04:07:47;101523.09;;;8.28;86.06
37852;BME280;23691;52.486;4.650;2023-01-30T04:10:12;101530.28;;;8.27;86.02
37852;BME280;23691;52.486;4.650;2023-01-30T04:12:40;101533.78;;;8.28;86.07
37852;BME280;23691;52.486;4.650;2023-01-30T04:15:07;101525.91;;;8.26;85.75
37852;BME280;23691;52.486;4.650;2023-01-30T04:17:33;101523.63;;;8.22;85.89
37852;BME280;23691;52.486;4.650;2023-01-30T04:19:58;101523.91;;;8.18;85.89
37852;BME280;23691;52.486;4.650;2023-01-30T04:22:24;101515.06;;;8.18;86.06
37852;BME280;23691;52.486;4.650;2023-01-30T04:24:49;101527.56;;;8.17;85.47
37852;BME280;23691;52.486;4.650;2023-01-30T04:27:14;101546.34;;;8.16;85.36
37852;BME280;23691;52.486;4.650;2023-01-30T04:29:40;101542.81;;;8.15;85.14
37852;BME280;23691;52.486;4.650;2023-01-30T04:32:06;101548.16;;;8.15;85.21
37852;BME280;23691;52.486;4.650;2023-01-30T04:34:32;101547.06;;;8.18;84.70
37852;BME280;23691;52.486;4.650;2023-01-30T04:36:57;101531.78;;;8.20;84.57
37852;BME280;23691;52.486;4.650;2023-01-30T04:39:23;101531.91;;;8.18;84.09
37852;BME280;23691;52.486;4.650;2023-01-30T04:41:48;101532.00;;;8.17;83.42
37852;BME280;23691;52.486;4.650;2023-01-30T04:44:13;101534.94;;;8.14;83.34
37852;BME280;23691;52.486;4.650;2023-01-30T04:46:39;101546.88;;;8.10;82.92
37852;BME280;23691;52.486;4.650;2023-01-30T04:49:04;101528.34;;;8.08;82.61
37852;BME280;23691;52.486;4.650;2023-01-30T04:51:29;101524.22;;;8.04;81.80
37852;BME280;23691;52.486;4.650;2023-01-30T04:53:55;101517.88;;;7.95;80.39
37852;BME280;23691;52.486;4.650;2023-01-30T04:56:20;101530.88;;;7.89;78.89
37852;BME280;23691;52.486;4.650;2023-01-30T04:58:45;101540.25;;;7.83;76.75
37852;BME280;23691;52.486;4.650;2023-01-30T05:01:29;101533.22;;;7.82;75.45
37852;BME280;23691;52.486;4.650;2023-01-30T05:03:54;101551.41;;;7.77;75.59
37852;BME280;23691;52.486;4.650;2023-01-30T05:06:20;101564.88;;;7.76;75.47
37852;BME280;23691;52.486;4.650;2023-01-30T05:08:48;101553.50;;;7.73;75.09
37852;BME280;23691;52.486;4.650;2023-01-30T05:11:14;101559.09;;;7.70;74.63
37852;BME280;23691;52.486;4.650;2023-01-30T05:13:39;101562.69;;;7.69;74.52
37852;BME280;23691;52.486;4.650;2023-01-30T05:16:05;101571.41;;;7.71;74.26
37852;BME280;23691;52.486;4.650;2023-01-30T05:18:30;101578.69;;;7.69;73.97
37852;BME280;23691;52.486;4.650;2023-01-30T05:21:03;101567.19;;;7.69;73.89
37852;BME280;23691;52.486;4.650;2023-01-30T05:23:29;101579.66;;;7.68;74.28
37852;BME280;23691;52.486;4.650;2023-01-30T05:25:54;101579.66;;;7.68;74.07
37852;BME280;23691;52.486;4.650;2023-01-30T05:28:20;101587.66;;;7.68;74.34
37852;BME280;23691;52.486;4.650;2023-01-30T05:30:45;101602.06;;;7.66;74.57
37852;BME280;23691;52.486;4.650;2023-01-30T05:33:11;101593.09;;;7.67;74.43
37852;BME280;23691;52.486;4.650;2023-01-30T05:35:36;101581.59;;;7.66;74.47
37852;BME280;23691;52.486;4.650;2023-01-30T05:38:01;101582.44;;;7.67;74.94
37852;BME280;23691;52.486;4.650;2023-01-30T05:40:27;101583.56;;;7.64;75.08
37852;BME280;23691;52.486;4.650;2023-01-30T05:42:53;101576.53;;;7.63;75.38
37852;BME280;23691;52.486;4.650;2023-01-30T05:45:19;101570.22;;;7.64;75.66
37852;BME280;23691;52.486;4.650;2023-01-30T05:47:49;101558.75;;;7.64;76.40
37852;BME280;23691;52.486;4.650;2023-01-30T05:50:15;101573.88;;;7.63;76.72
37852;BME280;23691;52.486;4.650;2023-01-30T05:52:41;101578.47;;;7.61;77.00
37852;BME280;23691;52.486;4.650;2023-01-30T05:55:06;101575.81;;;7.61;76.92
37852;BME280;23691;52.486;4.650;2023-01-30T05:57:32;101567.38;;;7.56;77.05
37852;BME280;23691;52.486;4.650;2023-01-30T05:59:57;101573.66;;;7.55;77.16
37852;BME280;23691;52.486;4.650;2023-01-30T06:02:22;101576.31;;;7.55;77.04
37852;BME280;23691;52.486;4.650;2023-01-30T06:04:48;101579.97;;;7.54;76.99
37852;BME280;23691;52.486;4.650;2023-01-30T06:07:13;101595.94;;;7.54;77.28
37852;BME280;23691;52.486;4.650;2023-01-30T06:09:38;101614.84;;;7.51;76.64
37852;BME280;23691;52.486;4.650;2023-01-30T06:12:05;101591.97;;;7.48;75.83
37852;BME280;23691;52.486;4.650;2023-01-30T06:14:31;101580.72;;;7.45;75.65
37852;BME280;23691;52.486;4.650;2023-01-30T06:16:56;101592.34;;;7.44;75.39
37852;BME280;23691;52.486;4.650;2023-01-30T06:19:22;101583.53;;;7.43;74.99
37852;BME280;23691;52.486;4.650;2023-01-30T06:21:47;101582.78;;;7.41;74.59
37852;BME280;23691;52.486;4.650;2023-01-30T06:24:13;101576.75;;;7.39;74.66
37852;BME280;23691;52.486;4.650;2023-01-30T06:26:38;101581.09;;;7.40;74.29
37852;BME280;23691;52.486;4.650;2023-01-30T06:29:03;101598.88;;;7.40;74.39
37852;BME280;23691;52.486;4.650;2023-01-30T06:31:29;101596.22;;;7.40;74.54
37852;BME280;23691;52.486;4.650;2023-01-30T06:33:54;101598.88;;;7.40;74.20
37852;BME280;23691;52.486;4.650;2023-01-30T06:36:19;101594.53;;;7.39;74.08
37852;BME280;23691;52.486;4.650;2023-01-30T06:38:45;101591.16;;;7.37;73.72
37852;BME280;23691;52.486;4.650;2023-01-30T06:41:10;101588.59;;;7.35;73.24
37852;BME280;23691;52.486;4.650;2023-01-30T06:43:35;101590.44;;;7.35;73.19
37852;BME280;23691;52.486;4.650;2023-01-30T06:46:01;101596.75;;;7.34;73.08
37852;BME280;23691;52.486;4.650;2023-01-30T06:48:26;101596.00;;;7.31;72.51
37852;BME280;23691;52.486;4.650;2023-01-30T06:50:51;101598.78;;;7.30;72.47
37852;BME280;23691;52.486;4.650;2023-01-30T06:53:17;101605.69;;;7.32;71.89
37852;BME280;23691;52.486;4.650;2023-01-30T06:55:42;101611.16;;;7.31;72.62
37852;BME280;23691;52.486;4.650;2023-01-30T06:58:10;101610.16;;;7.32;72.44
37852;BME280;23691;52.486;4.650;2023-01-30T07:00:36;101600.34;;;7.32;72.46
37852;BME280;23691;52.486;4.650;2023-01-30T07:03:04;101617.41;;;7.30;72.27
37852;BME280;23691;52.486;4.650;2023-01-30T07:05:29;101622.75;;;7.30;72.33
37852;BME280;23691;52.486;4.650;2023-01-30T07:07:54;101627.94;;;7.31;72.33
37852;BME280;23691;52.486;4.650;2023-01-30T07:10:20;101640.44;;;7.31;72.33
37852;BME280;23691;52.486;4.650;2023-01-30T07:12:46;101647.69;;;7.29;72.59
37852;BME280;23691;52.486;4.650;2023-01-30T07:15:12;101635.09;;;7.31;72.77
37852;BME280;23691;52.486;4.650;2023-01-30T07:17:41;101637.63;;;7.32;72.64
37852;BME280;23691;52.486;4.650;2023-01-30T07:20:06;101642.09;;;7.32;72.64
37852;BME280;23691;52.486;4.650;2023-01-30T07:22:32;101642.00;;;7.34;72.60
37852;BME280;23691;52.486;4.650;2023-01-30T07:24:57;101626.72;;;7.36;72.37
37852;BME280;23691;52.486;4.650;2023-01-30T07:27:22;101633.03;;;7.35;71.79
37852;BME280;23691;52.486;4.650;2023-01-30T07:29:48;101636.53;;;7.35;71.85
37852;BME280;23691;52.486;4.650;2023-01-30T07:32:16;101639.19;;;7.35;71.57
37852;BME280;23691;52.486;4.650;2023-01-30T07:34:42;101632.91;;;7.36;71.25
37852;BME280;23691;52.486;4.650;2023-01-30T07:37:08;101627.44;;;7.38;71.15
37852;BME280;23691;52.486;4.650;2023-01-30T07:39:33;101634.59;;;7.37;71.35
37852;BME280;23691;52.486;4.650;2023-01-30T07:42:00;101630.94;;;7.38;71.38
37852;BME280;23691;52.486;4.650;2023-01-30T07:44:25;101639.81;;;7.39;71.27
37852;BME280;23691;52.486;4.650;2023-01-30T07:46:51;101659.13;;;7.41;71.69
37852;BME280;23691;52.486;4.650;2023-01-30T07:49:16;101644.88;;;7.42;71.65
37852;BME280;23691;52.486;4.650;2023-01-30T07:51:41;101664.22;;;7.44;71.71
37852;BME280;23691;52.486;4.650;2023-01-30T07:54:07;101652.59;;;7.45;71.96
37852;BME280;23691;52.486;4.650;2023-01-30T07:56:32;101657.81;;;7.46;71.91
37852;BME280;23691;52.486;4.650;2023-01-30T07:58:58;101659.38;;;7.49;71.73
37852;BME280;23691;52.486;4.650;2023-01-30T08:01:23;101653.91;;;7.50;71.70
37852;BME280;23691;52.486;4.650;2023-01-30T08:03:48;101653.69;;;7.53;71.51
37852;BME280;23691;52.486;4.650;2023-01-30T08:06:17;101661.66;;;7.53;71.75
37852;BME280;23691;52.486;4.650;2023-01-30T08:08:43;101661.66;;;7.53;71.56
37852;BME280;23691;52.486;4.650;2023-01-30T08:11:09;101672.91;;;7.57;71.97
37852;BME280;23691;52.486;4.650;2023-01-30T08:13:35;101664.81;;;7.59;71.87
37852;BME280;23691;52.486;4.650;2023-01-30T08:16:01;101689.63;;;7.59;72.02
37852;BME280;23691;52.486;4.650;2023-01-30T08:18:27;101679.69;;;7.61;72.05
37852;BME280;23691;52.486;4.650;2023-01-30T08:20:56;101688.25;;;7.65;72.27
37852;BME280;23691;52.486;4.650;2023-01-30T08:23:22;101682.81;;;7.66;71.92
37852;BME280;23691;52.486;4.650;2023-01-30T08:25:47;101685.59;;;7.65;72.05
37852;BME280;23691;52.486;4.650;2023-01-30T08:28:12;101679.19;;;7.67;72.68
37852;BME280;23691;52.486;4.650;2023-01-30T08:30:40;101681.72;;;7.69;71.83
37852;BME280;23691;52.486;4.650;2023-01-30T08:33:05;101678.22;;;7.68;71.42
37852;BME280;23691;52.486;4.650;2023-01-30T08:35:31;101691.28;;;7.71;71.41
37852;BME280;23691;52.486;4.650;2023-01-30T08:37:56;101698.06;;;7.76;71.39
37852;BME280;23691;52.486;4.650;2023-01-30T08:40:21;101684.75;;;7.76;71.51
37852;BME280;23691;52.486;4.650;2023-01-30T08:42:47;101683.75;;;7.77;71.68
37852;BME280;23691;52.486;4.650;2023-01-30T08:45:12;101697.44;;;7.83;71.79
37852;BME280;23691;52.486;4.650;2023-01-30T08:47:38;101704.31;;;7.86;71.02
37852;BME280;23691;52.486;4.650;2023-01-30T08:50:04;101691.94;;;7.85;71.12
37852;BME280;23691;52.486;4.650;2023-01-30T08:52:31;101697.06;;;7.88;71.25
37852;BME280;23691;52.486;4.650;2023-01-30T08:54:57;101704.31;;;7.86;71.17
37852;BME280;23691;52.486;4.650;2023-01-30T08:57:22;101715.72;;;7.88;71.21
37852;BME280;23691;52.486;4.650;2023-01-30T08:59:47;101723.44;;;7.91;71.13
37852;BME280;23691;52.486;4.650;2023-01-30T09:02:15;101729.34;;;7.94;71.13
37852;BME280;23691;52.486;4.650;2023-01-30T09:04:41;101730.34;;;7.93;71.11
37852;BME280;23691;52.486;4.650;2023-01-30T09:07:06;101733.94;;;7.92;71.18
37852;BME280;23691;52.486;4.650;2023-01-30T09:09:31;101734.56;;;7.96;71.41
37852;BME280;23691;52.486;4.650;2023-01-30T09:11:57;101738.91;;;7.97;71.88
37852;BME280;23691;52.486;4.650;2023-01-30T09:14:22;101764.94;;;8.05;71.57
37852;BME280;23691;52.486;4.650;2023-01-30T09:16:48;101730.28;;;8.05;71.14
37852;BME280;23691;52.486;4.650;2023-01-30T09:19:24;101747.16;;;8.05;70.88
37852;BME280;23691;52.486;4.650;2023-01-30T09:21:51;101752.78;;;8.12;70.66
37852;BME280;23691;52.486;4.650;2023-01-30T09:24:16;101746.63;;;8.11;70.66
37852;BME280;23691;52.486;4.650;2023-01-30T09:26:42;101751.38;;;8.08;70.79
37852;BME280;23691;52.486;4.650;2023-01-30T09:29:13;101750.53;;;8.07;70.51
37852;BME280;23691;52.486;4.650;2023-01-30T09:31:39;101760.69;;;8.13;70.69
37852;BME280;23691;52.486;4.650;2023-01-30T09:34:04;101763.09;;;8.16;70.63
37852;BME280;23691;52.486;4.650;2023-01-30T09:36:30;101761.41;;;8.15;70.09
37852;BME280;23691;52.486;4.650;2023-01-30T09:38:55;101754.13;;;8.17;70.09
37852;BME280;23691;52.486;4.650;2023-01-30T09:41:34;101768.31;;;8.18;70.34
37852;BME280;23691;52.486;4.650;2023-01-30T09:55:49;101776.41;;;8.16;70.17
37852;BME280;23691;52.486;4.650;2023-01-30T09:58:20;101799.06;;;8.22;70.11
37852;BME280;23691;52.486;4.650;2023-01-30T10:00:48;101785.34;;;8.27;70.05
37852;BME280;23691;52.486;4.650;2023-01-30T10:03:35;101811.88;;;8.28;69.72
37852;BME280;23691;52.486;4.650;2023-01-30T10:06:12;101808.50;;;8.26;69.71
37852;BME280;23691;52.486;4.650;2023-01-30T10:17:19;101834.78;;;8.31;69.96
37852;BME280;23691;52.486;4.650;2023-01-30T10:25:41;101842.66;;;8.44;69.86
37852;BME280;23691;52.486;4.650;2023-01-30T10:28:19;101832.72;;;8.46;69.91
37852;BME280;23691;52.486;4.650;2023-01-30T10:30:50;101828.94;;;8.48;69.29
37852;BME280;23691;52.486;4.650;2023-01-30T10:33:23;101831.75;;;8.47;69.44
37852;BME280;23691;52.486;4.650;2023-01-30T10:36:03;101836.47;;;8.43;69.63
37852;BME280;23691;52.486;4.650;2023-01-30T10:44:09;101838.59;;;8.60;69.27
37852;BME280;23691;52.486;4.650;2023-01-30T10:49:48;101849.00;;;8.64;69.56
37852;BME280;23691;52.486;4.650;2023-01-30T10:53:05;101838.59;;;8.60;69.55
37852;BME280;23691;52.486;4.650;2023-01-30T10:57:53;101838.47;;;8.62;69.31
37852;BME280;23691;52.486;4.650;2023-01-30T11:00:33;101856.69;;;8.57;69.52
37852;BME280;23691;52.486;4.650;2023-01-30T11:10:46;101838.13;;;8.55;69.76
37852;BME280;23691;52.486;4.650;2023-01-30T11:13:16;101828.31;;;8.56;69.85
37852;BME280;23691;52.486;4.650;2023-01-30T11:15:45;101830.84;;;8.57;69.27
37852;BME280;23691;52.486;4.650;2023-01-30T11:18:12;101831.59;;;8.59;69.62
37852;BME280;23691;52.486;4.650;2023-01-30T11:20:43;101833.72;;;8.66;69.66
37852;BME280;23691;52.486;4.650;2023-01-30T11:23:25;101845.72;;;8.71;69.35
37852;BME280;23691;52.486;4.650;2023-01-30T11:25:56;101845.56;;;8.73;69.47
37852;BME280;23691;52.486;4.650;2023-01-30T11:28:23;101849.81;;;8.75;69.30
37852;BME280;23691;52.486;4.650;2023-01-30T11:30:56;101860.22;;;8.78;69.16
37852;BME280;23691;52.486;4.650;2023-01-30T11:33:34;101857.16;;;8.83;69.13
37852;BME280;23691;52.486;4.650;2023-01-30T11:36:23;101865.63;;;8.88;69.35
37852;BME280;23691;52.486;4.650;2023-01-30T11:39:16;101854.13;;;8.88;68.95
37852;BME280;23691;52.486;4.650;2023-01-30T11:44:28;101864.16;;;8.95;68.87
37852;BME280;23691;52.486;4.650;2023-01-30T11:47:01;101877.75;;;8.92;68.72
37852;BME280;23691;52.486;4.650;2023-01-30T11:49:32;101876.31;;;8.88;68.95
37852;BME280;23691;52.486;4.650;2023-01-30T11:52:00;101862.75;;;8.91;69.00
37852;BME280;23691;52.486;4.650;2023-01-30T11:54:31;101858.09;;;8.93;68.87
37852;BME280;23691;52.486;4.650;2023-01-30T11:57:01;101869.50;;;8.95;68.80
37852;BME280;23691;52.486;4.650;2023-01-30T11:59:32;101845.22;;;8.98;68.51
37852;BME280;23691;52.486;4.650;2023-01-30T12:04:46;101875.06;;;9.03;67.32
37852;BME280;23691;52.486;4.650;2023-01-30T12:07:20;101862.53;;;9.04;67.08
37852;BME280;23691;52.486;4.650;2023-01-30T12:09:46;101858.88;;;9.05;67.23
37852;BME280;23691;52.486;4.650;2023-01-30T12:12:36;101875.50;;;9.09;67.49
37852;BME280;23691;52.486;4.650;2023-01-30T12:15:26;101873.78;;;9.08;67.59
37852;BME280;23691;52.486;4.650;2023-01-30T12:18:09;101882.25;;;9.13;67.31
37852;BME280;23691;52.486;4.650;2023-01-30T12:21:00;101883.97;;;9.14;67.05
37852;BME280;23691;52.486;4.650;2023-01-30T12:23:37;101883.25;;;9.12;67.46
37852;BME280;23691;52.486;4.650;2023-01-30T12:26:25;101894.31;;;9.07;67.34
37852;BME280;23691;52.486;4.650;2023-01-30T12:28:59;101895.41;;;9.05;67.14
37852;BME280;23691;52.486;4.650;2023-01-30T12:31:45;101890.69;;;9.08;66.97
37852;BME280;23691;52.486;4.650;2023-01-30T12:34:12;101890.41;;;9.11;67.18
37852;BME280;23691;52.486;4.650;2023-01-30T12:36:49;101890.41;;;9.11;67.07
37852;BME280;23691;52.486;4.650;2023-01-30T12:51:08;101896.41;;;9.03;67.47
37852;BME280;23691;52.486;4.650;2023-01-30T12:53:55;101915.22;;;9.02;67.36
37852;BME280;23691;52.486;4.650;2023-01-30T12:56:41;101905.59;;;9.11;67.32
37852;BME280;23691;52.486;4.650;2023-01-30T12:59:21;101924.97;;;9.13;67.40
37852;BME280;23691;52.486;4.650;2023-01-30T13:15:32;101938.00;;;8.74;67.99
37852;BME280;23691;52.486;4.650;2023-01-30T13:18:12;101943.19;;;8.75;68.20
37852;BME280;23691;52.486;4.650;2023-01-30T13:26:09;101951.09;;;8.77;68.23
37852;BME280;23691;52.486;4.650;2023-01-30T13:28:41;101954.72;;;8.76;68.40
37852;BME280;23691;52.486;4.650;2023-01-30T13:31:11;101968.16;;;8.86;68.47
37852;BME280;23691;52.486;4.650;2023-01-30T13:33:41;101959.78;;;8.90;68.41
37852;BME280;23691;52.486;4.650;2023-01-30T13:36:15;101966.22;;;8.88;68.71
37852;BME280;23691;52.486;4.650;2023-01-30T13:38:59;101973.13;;;8.90;68.63
37852;BME280;23691;52.486;4.650;2023-01-30T13:41:35;101968.63;;;8.91;68.71
37852;BME280;23691;52.486;4.650;2023-01-30T13:44:11;101972.53;;;8.87;69.03
37852;BME280;23691;52.486;4.650;2023-01-30T13:46:40;101969.97;;;8.85;68.80
37852;BME280;23691;52.486;4.650;2023-01-30T13:49:27;101982.84;;;8.91;68.74
37852;BME280;23691;52.486;4.650;2023-01-30T13:52:19;101980.53;;;8.87;68.39
37852;BME280;23691;52.486;4.650;2023-01-30T13:55:05;101990.88;;;8.80;68.60
37852;BME280;23691;52.486;4.650;2023-01-30T14:00:22;102004.03;;;8.93;68.41
37852;BME280;23691;52.486;4.650;2023-01-30T14:08:26;102038.41;;;8.86;67.92
37852;BME280;23691;52.486;4.650;2023-01-30T14:10:52;102011.84;;;8.85;68.02
37852;BME280;23691;52.486;4.650;2023-01-30T14:13:23;102013.91;;;8.81;68.13
37852;BME280;23691;52.486;4.650;2023-01-30T14:16:00;102031.88;;;8.79;68.15
37852;BME280;23691;52.486;4.650;2023-01-30T14:21:12;102044.00;;;8.72;68.03
37852;BME280;23691;52.486;4.650;2023-01-30T14:34:45;102061.34;;;8.55;67.54
37852;BME280;23691;52.486;4.650;2023-01-30T14:45:59;102090.69;;;8.66;67.30
37852;BME280;23691;52.486;4.650;2023-01-30T14:48:36;102092.75;;;8.63;67.46
37852;BME280;23691;52.486;4.650;2023-01-30T14:54:20;102109.38;;;8.55;67.50
37852;BME280;23691;52.486;4.650;2023-01-30T14:56:54;102115.91;;;8.51;67.85
37852;BME280;23691;52.486;4.650;2023-01-30T15:02:00;102113.97;;;8.53;68.02
37852;BME280;23691;52.486;4.650;2023-01-30T15:04:32;102114.97;;;8.52;68.10
37852;BME280;23691;52.486;4.650;2023-01-30T15:07:13;102127.41;;;8.51;68.61
37852;BME280;23691;52.486;4.650;2023-01-30T15:09:49;102123.31;;;8.47;68.63
37852;BME280;23691;52.486;4.650;2023-01-30T15:24:05;102151.25;;;8.30;71.36
37852;BME280;23691;52.486;4.650;2023-01-30T15:31:56;102156.19;;;7.88;72.09
37852;BME280;23691;52.486;4.650;2023-01-30T15:34:22;102165.50;;;7.83;71.91
37852;BME280;23691;52.486;4.650;2023-01-30T15:36:51;102173.09;;;7.76;72.17
37852;BME280;23691;52.486;4.650;2023-01-30T15:39:23;102188.44;;;7.72;72.67
37852;BME280;23691;52.486;4.650;2023-01-30T15:41:50;102187.75;;;7.70;73.09
37852;BME280;23691;52.486;4.650;2023-01-30T15:44:34;102185.91;;;7.71;73.44
37852;BME280;23691;52.486;4.650;2023-01-30T15:50:08;102201.16;;;7.69;73.62
37852;BME280;23691;52.486;4.650;2023-01-30T15:52:43;102206.50;;;7.69;73.46